| time (UTC) | temp C | wind direction | speed KPH | gust KPH | rain 1hr cm | rain 24hr cm | rain mn cm | humidity % | barometer mb |
| 20260505124541 | 12 | 261 | 8.0 | 22.5 | 0.00 | 0.28 | 0.10 | 86 | 1006.6 |
| 20260505123058 | 12 | 283 | 8.0 | 14.5 | 0.00 | 0.28 | 0.10 | 86 | 1006.6 |
| 20260505121538 | 12 | 273 | 8.0 | 17.7 | 0.00 | 0.28 | 0.10 | 86 | 1006.6 |
| 20260505120036 | 12 | 279 | 9.7 | 20.9 | 0.00 | 0.28 | 0.10 | 86 | 1006.6 |
| 20260505114548 | 11 | 284 | 6.4 | 14.5 | 0.00 | 0.28 | 0.10 | 86 | 1006.6 |
| 20260505113038 | 11 | 284 | 3.2 | 9.7 | 0.00 | 0.28 | 0.10 | 86 | 1006.7 |
| 20260505111551 | 11 | 304 | 8.0 | 17.7 | 0.00 | 0.28 | 0.10 | 87 | 1006.8 |
| 20260505101532 | 11 | 284 | 3.2 | 16.1 | 0.03 | 0.28 | 0.10 | 88 | 1006.7 |
| 20260505100028 | 11 | 276 | 0.0 | 14.5 | 0.03 | 0.28 | 0.10 | 88 | 1006.9 |
| 20260505094523 | 11 | 274 | 6.4 | 16.1 | 0.03 | 0.28 | 0.10 | 87 | 1007.0 |
| 20260505093026 | 12 | 306 | 6.4 | 14.5 | 0.03 | 0.25 | 0.08 | 87 | 1007.1 |
| 20260505091519 | 12 | 293 | 4.8 | 12.9 | 0.05 | 0.25 | 0.08 | 87 | 1007.3 |
| 20260505090018 | 12 | 257 | 4.8 | 12.9 | 0.08 | 0.25 | 0.08 | 87 | 1007.3 |
| 20260505084519 | 11 | 271 | 6.4 | 14.5 | 0.10 | 0.25 | 0.08 | 87 | 1007.4 |
| 20260505083020 | 11 | 276 | 3.2 | 17.7 | 0.10 | 0.23 | 0.05 | 87 | 1007.4 |
| 20260505081516 | 11 | 291 | 6.4 | 14.5 | 0.08 | 0.20 | 0.03 | 86 | 1007.4 |
| 20260505080027 | 11 | 296 | 6.4 | 14.5 | 0.05 | 0.18 | 0.00 | 86 | 1007.7 |
| 20260505074507 | 11 | 273 | 8.0 | 16.1 | 0.05 | 0.15 | 0.15 | 86 | 1007.5 |
| 20260505073009 | 11 | 302 | 4.8 | 11.3 | 0.03 | 0.13 | 0.13 | 86 | 1007.8 |
| 20260505071506 | 11 | 278 | 0.0 | 9.7 | 0.03 | 0.13 | 0.13 | 85 | 1008.1 |
| 20260505070007 | 11 | 289 | 1.6 | 9.7 | 0.05 | 0.13 | 0.13 | 85 | 1007.9 |
| 20260505064505 | 11 | 267 | 1.6 | 11.3 | 0.03 | 0.10 | 0.10 | 84 | 1007.6 |
| 20260505063005 | 11 | 308 | 9.7 | 17.7 | 0.05 | 0.10 | 0.10 | 84 | 1007.3 |
| 20260505061503 | 11 | 324 | 9.7 | 17.7 | 0.05 | 0.10 | 0.10 | 83 | 1007.3 |
| 20260505060104 | 11 | 274 | 3.2 | 16.1 | 0.05 | 0.08 | 0.08 | 82 | 1007.6 |
| 20260505054605 | 11 | 336 | 4.8 | 16.1 | 0.08 | 0.08 | 0.08 | 82 | 1007.7 |
| 20260505053110 | 12 | 355 | 4.8 | 12.9 | 0.05 | 0.05 | 0.05 | 82 | 1007.5 |
| 20260505051555 | 12 | 294 | 0.0 | 9.7 | 0.05 | 0.05 | 0.05 | 82 | 1007.6 |
| 20260505041610 | 12 | 325 | 9.7 | 16.1 | 0.00 | 0.00 | 0.00 | 78 | 1008.0 |
| 20260505040050 | 12 | 19 | 3.2 | 12.9 | 0.00 | 0.00 | 0.00 | 78 | 1007.4 |
| 20260505034548 | 12 | 309 | 11.3 | 19.3 | 0.00 | 0.00 | 0.00 | 78 | 1007.2 |
| 20260505033049 | 13 | 286 | 4.8 | 16.1 | 0.00 | 0.00 | 0.00 | 79 | 1007.0 |
| 20260505031551 | 13 | 306 | 6.4 | 16.1 | 0.00 | 0.00 | 0.00 | 80 | 1006.9 |
| 20260505030046 | 13 | 326 | 6.4 | 12.9 | 0.00 | 0.00 | 0.00 | 80 | 1006.8 |
| 20260505024548 | 13 | 326 | 4.8 | 17.7 | 0.00 | 0.00 | 0.00 | 80 | 1006.9 |
| 20260505023048 | 13 | 9 | 4.8 | 14.5 | 0.00 | 0.00 | 0.00 | 80 | 1006.9 |
| 20260505021547 | 13 | 292 | 3.2 | 24.1 | 0.00 | 0.00 | 0.00 | 80 | 1006.7 |
| 20260505020044 | 13 | 286 | 6.4 | 17.7 | 0.00 | 0.00 | 0.00 | 80 | 1006.9 |
| 20260505014546 | 14 | 305 | 6.4 | 22.5 | 0.00 | 0.00 | 0.00 | 80 | 1007.1 |
| 20260505013044 | 14 | 346 | 6.4 | 22.5 | 0.00 | 0.00 | 0.00 | 80 | 1007.1 |
| 20260505011544 | 14 | 314 | 6.4 | 22.5 | 0.00 | 0.00 | 0.00 | 81 | 1007.1 |
| 20260505010045 | 14 | 313 | 11.3 | 27.4 | 0.00 | 0.00 | 0.00 | 80 | 1007.2 |
| 20260505004543 | 14 | 294 | 9.7 | 19.3 | 0.00 | 0.00 | 0.00 | 79 | 1007.3 |
| 20260505003041 | 15 | 360 | 8.0 | 20.9 | 0.00 | 0.00 | 0.00 | 79 | 1007.4 |
| 20260505001549 | 15 | 305 | 9.7 | 22.5 | 0.00 | 0.00 | 0.00 | 78 | 1007.5 |
| 20260505000049 | 15 | 273 | 14.5 | 24.1 | 0.00 | 0.00 | 0.00 | 77 | 1007.4 |
| 20260504234543 | 15 | 262 | 9.7 | 25.7 | 0.00 | 0.00 | 0.00 | 76 | 1007.3 |
| 20260504233038 | 15 | 314 | 9.7 | 22.5 | 0.00 | 0.00 | 0.00 | 76 | 1007.3 |
| 20260504231554 | 15 | 360 | 11.3 | 22.5 | 0.00 | 0.00 | 0.00 | 75 | 1007.3 |
| 20260504230037 | 15 | 290 | 9.7 | 20.9 | 0.00 | 0.00 | 0.00 | 74 | 1007.4 |
| 20260504224539 | 16 | 360 | 4.8 | 17.7 | 0.00 | 0.00 | 0.00 | 73 | 1007.6 |
| 20260504223034 | 16 | 298 | 3.2 | 17.7 | 0.00 | 0.00 | 0.00 | 72 | 1007.5 |
| 20260504221533 | 17 | 288 | 11.3 | 20.9 | 0.00 | 0.00 | 0.00 | 69 | 1007.6 |
| 20260504220035 | 17 | 360 | 9.7 | 20.9 | 0.00 | 0.00 | 0.00 | 69 | 1007.6 |
| 20260504214531 | 17 | 337 | 9.7 | 22.5 | 0.00 | 0.00 | 0.00 | 68 | 1007.6 |
| 20260504213029 | 17 | 275 | 8.0 | 22.5 | 0.00 | 0.00 | 0.00 | 67 | 1007.6 |
| 20260504211530 | 17 | 304 | 14.5 | 22.5 | 0.00 | 0.00 | 0.00 | 65 | 1007.8 |
| 20260504210037 | 17 | 311 | 8.0 | 16.1 | 0.00 | 0.00 | 0.00 | 66 | 1007.8 |
| 20260504204526 | 16 | 26 | 8.0 | 22.5 | 0.00 | 0.00 | 0.00 | 68 | 1007.9 |
| 20260504203032 | 17 | 344 | 11.3 | 17.7 | 0.00 | 0.00 | 0.00 | 66 | 1007.8 |
| 20260504201527 | 18 | 269 | 8.0 | 17.7 | 0.00 | 0.00 | 0.00 | 63 | 1007.7 |
| 20260504200025 | 17 | 306 | 11.3 | 22.5 | 0.00 | 0.00 | 0.00 | 65 | 1007.9 |
| 20260504194536 | 17 | 311 | 11.3 | 20.9 | 0.00 | 0.00 | 0.00 | 67 | 1007.9 |
| 20260504193022 | 17 | 360 | 6.4 | 22.5 | 0.00 | 0.00 | 0.00 | 70 | 1007.9 |
| 20260504191519 | 17 | 355 | 6.4 | 19.3 | 0.00 | 0.00 | 0.00 | 69 | 1007.9 |
| 20260504190020 | 16 | 261 | 8.0 | 22.5 | 0.00 | 0.00 | 0.00 | 72 | 1007.9 |
| 20260504184516 | 17 | 283 | 11.3 | 17.7 | 0.00 | 0.00 | 0.00 | 69 | 1008.0 |
| 20260504183016 | 17 | 257 | 8.0 | 22.5 | 0.00 | 0.00 | 0.00 | 70 | 1007.9 |
| 20260504181516 | 17 | 296 | 9.7 | 24.1 | 0.00 | 0.00 | 0.00 | 70 | 1008.0 |
| 20260504180018 | 18 | 273 | 4.8 | 20.9 | 0.00 | 0.00 | 0.00 | 67 | 1007.8 |
| 20260504174512 | 16 | 313 | 4.8 | 17.7 | 0.00 | 0.00 | 0.00 | 70 | 1007.8 |
| 20260504173015 | 16 | 267 | 3.2 | 16.1 | 0.00 | 0.00 | 0.00 | 72 | 1007.6 |
| 20260504171508 | 18 | 345 | 0.0 | 17.7 | 0.00 | 0.00 | 0.00 | 68 | 1007.4 |